To NAV CANADA Home Page Login to a new session Search on AWWS site Disclaimer Vers la page française équivalente Tips FAQ What's new on the site To the Forecasts and Observations / NOTAM section To "File a Flight Plan" website Publications and other links Update of the User's profile FIC Telephone Numbers My Weather Data Folder Route Weather Data Regional Weather Data Local Weather Data To the Forecasts and Observations / NOTAM section
Request Generated 12/17/2018 at 01:16:45 UTC . Weather information available at that time is displayed.

METAR/TAF

IQALUIT/NU    

METAR CYFB 170100Z 10006KT 15SM OVC034 M08/M11 A2961 RMK SC8 -SN INTMT SLP031=
METAR CYFB 170000Z VRB02KT 15SM -SN OVC035 M09/M11 A2964 RMK SC8 SLP041=
METAR CYFB 162300Z 10003KT 15SM -SN FEW008 OVC035 M09/M11 A2965 RMK SF1SC7 SLP044=

TAF CYFB 162338Z 1700/1724 10005KT P6SM -SN FEW015 BKN030 TEMPO
1700/1709 3SM -SN FEW008 OVC015
BECMG 1703/1705 12008KT
FM170900 12015G25KT 3SM -SN FEW008 OVC015 TEMPO 1709/1724 2SM -SN
OVC008
RMK NXT FCST BY 170600Z=
Your time UTC time
Weather data provided by Environment Canada and NAV CANADA